sensor_id;sensor_type;location;lat;lon;timestamp;P1;durP1;ratioP1;P2;durP2;ratioP2
15110;SDS011;7656;51.954;7.998;2024-03-17T00:02:34;6.63;;;3.37;;
15110;SDS011;7656;51.954;7.998;2024-03-17T00:06:55;5.43;;;3.93;;
15110;SDS011;7656;51.954;7.998;2024-03-17T00:11:16;4.87;;;4.10;;
15110;SDS011;7656;51.954;7.998;2024-03-17T00:15:37;7.00;;;2.90;;
15110;SDS011;7656;51.954;7.998;2024-03-17T00:20:02;3.53;;;2.33;;
15110;SDS011;7656;51.954;7.998;2024-03-17T00:24:29;4.00;;;2.37;;
15110;SDS011;7656;51.954;7.998;2024-03-17T00:28:55;5.00;;;2.43;;
15110;SDS011;7656;51.954;7.998;2024-03-17T00:33:16;4.03;;;2.37;;
15110;SDS011;7656;51.954;7.998;2024-03-17T00:37:39;2.40;;;2.20;;
15110;SDS011;7656;51.954;7.998;2024-03-17T00:42:00;5.07;;;2.07;;
15110;SDS011;7656;51.954;7.998;2024-03-17T00:46:21;2.47;;;2.07;;
15110;SDS011;7656;51.954;7.998;2024-03-17T00:50:43;3.90;;;2.13;;
15110;SDS011;7656;51.954;7.998;2024-03-17T00:55:08;2.43;;;2.07;;
15110;SDS011;7656;51.954;7.998;2024-03-17T00:59:30;3.70;;;2.40;;
15110;SDS011;7656;51.954;7.998;2024-03-17T01:03:51;3.03;;;2.57;;
15110;SDS011;7656;51.954;7.998;2024-03-17T01:08:16;2.40;;;2.17;;
15110;SDS011;7656;51.954;7.998;2024-03-17T01:12:38;5.50;;;2.60;;
15110;SDS011;7656;51.954;7.998;2024-03-17T01:16:59;3.43;;;2.00;;
15110;SDS011;7656;51.954;7.998;2024-03-17T01:21:21;8.43;;;2.73;;
15110;SDS011;7656;51.954;7.998;2024-03-17T01:25:43;8.80;;;2.87;;
15110;SDS011;7656;51.954;7.998;2024-03-17T01:30:04;3.37;;;2.60;;
15110;SDS011;7656;51.954;7.998;2024-03-17T01:34:25;2.93;;;2.57;;
15110;SDS011;7656;51.954;7.998;2024-03-17T01:38:46;3.30;;;2.47;;
15110;SDS011;7656;51.954;7.998;2024-03-17T01:43:11;3.73;;;2.50;;
15110;SDS011;7656;51.954;7.998;2024-03-17T01:47:32;3.80;;;2.40;;
15110;SDS011;7656;51.954;7.998;2024-03-17T01:51:53;3.07;;;2.30;;
15110;SDS011;7656;51.954;7.998;2024-03-17T01:56:16;2.33;;;2.13;;
15110;SDS011;7656;51.954;7.998;2024-03-17T02:00:38;2.93;;;2.13;;
15110;SDS011;7656;51.954;7.998;2024-03-17T02:05:00;3.17;;;2.30;;
15110;SDS011;7656;51.954;7.998;2024-03-17T02:09:21;5.17;;;2.50;;
15110;SDS011;7656;51.954;7.998;2024-03-17T02:13:42;3.93;;;2.17;;
15110;SDS011;7656;51.954;7.998;2024-03-17T02:18:03;5.03;;;2.20;;
15110;SDS011;7656;51.954;7.998;2024-03-17T02:22:26;2.47;;;2.17;;
15110;SDS011;7656;51.954;7.998;2024-03-17T02:26:48;2.63;;;2.03;;
15110;SDS011;7656;51.954;7.998;2024-03-17T02:31:10;7.27;;;2.43;;
15110;SDS011;7656;51.954;7.998;2024-03-17T02:35:32;2.07;;;1.97;;
15110;SDS011;7656;51.954;7.998;2024-03-17T02:39:53;2.70;;;2.40;;
15110;SDS011;7656;51.954;7.998;2024-03-17T02:44:15;3.43;;;2.00;;
15110;SDS011;7656;51.954;7.998;2024-03-17T02:48:36;2.20;;;1.77;;
15110;SDS011;7656;51.954;7.998;2024-03-17T02:53:01;2.53;;;2.10;;
15110;SDS011;7656;51.954;7.998;2024-03-17T02:57:24;2.30;;;2.10;;
15110;SDS011;7656;51.954;7.998;2024-03-17T03:01:49;4.70;;;2.43;;
15110;SDS011;7656;51.954;7.998;2024-03-17T03:06:13;2.50;;;2.00;;
15110;SDS011;7656;51.954;7.998;2024-03-17T03:10:36;4.80;;;2.13;;
15110;SDS011;7656;51.954;7.998;2024-03-17T03:14:58;4.70;;;2.13;;
15110;SDS011;7656;51.954;7.998;2024-03-17T03:19:19;7.43;;;2.30;;
15110;SDS011;7656;51.954;7.998;2024-03-17T03:23:40;3.03;;;2.67;;
15110;SDS011;7656;51.954;7.998;2024-03-17T03:28:01;4.70;;;2.20;;
15110;SDS011;7656;51.954;7.998;2024-03-17T03:32:23;4.23;;;2.33;;
15110;SDS011;7656;51.954;7.998;2024-03-17T03:36:44;6.43;;;2.43;;
15110;SDS011;7656;51.954;7.998;2024-03-17T03:41:09;4.83;;;2.30;;
15110;SDS011;7656;51.954;7.998;2024-03-17T03:45:34;3.90;;;2.43;;
15110;SDS011;7656;51.954;7.998;2024-03-17T03:49:56;2.60;;;2.40;;
15110;SDS011;7656;51.954;7.998;2024-03-17T03:54:17;4.07;;;2.33;;
15110;SDS011;7656;51.954;7.998;2024-03-17T03:58:38;3.40;;;2.60;;
15110;SDS011;7656;51.954;7.998;2024-03-17T04:03:00;3.03;;;2.60;;
15110;SDS011;7656;51.954;7.998;2024-03-17T04:07:22;2.33;;;1.90;;
15110;SDS011;7656;51.954;7.998;2024-03-17T04:11:43;2.93;;;2.13;;
15110;SDS011;7656;51.954;7.998;2024-03-17T04:16:04;3.67;;;2.20;;
15110;SDS011;7656;51.954;7.998;2024-03-17T04:20:26;2.10;;;2.00;;
15110;SDS011;7656;51.954;7.998;2024-03-17T04:24:48;3.57;;;1.80;;
15110;SDS011;7656;51.954;7.998;2024-03-17T04:29:17;4.03;;;1.97;;
15110;SDS011;7656;51.954;7.998;2024-03-17T04:33:38;3.60;;;1.97;;
15110;SDS011;7656;51.954;7.998;2024-03-17T04:37:59;3.40;;;2.33;;
15110;SDS011;7656;51.954;7.998;2024-03-17T04:42:20;2.93;;;2.30;;
15110;SDS011;7656;51.954;7.998;2024-03-17T04:46:41;3.93;;;2.33;;
15110;SDS011;7656;51.954;7.998;2024-03-17T04:51:03;3.50;;;2.30;;
15110;SDS011;7656;51.954;7.998;2024-03-17T04:55:25;2.87;;;2.47;;
15110;SDS011;7656;51.954;7.998;2024-03-17T04:59:47;4.57;;;2.43;;
15110;SDS011;7656;51.954;7.998;2024-03-17T05:04:08;2.90;;;2.57;;
15110;SDS011;7656;51.954;7.998;2024-03-17T05:08:30;5.33;;;2.27;;
15110;SDS011;7656;51.954;7.998;2024-03-17T05:12:52;3.87;;;2.30;;
15110;SDS011;7656;51.954;7.998;2024-03-17T05:17:14;3.20;;;2.70;;
15110;SDS011;7656;51.954;7.998;2024-03-17T05:21:35;4.80;;;2.97;;
15110;SDS011;7656;51.954;7.998;2024-03-17T05:25:57;3.20;;;2.90;;
15110;SDS011;7656;51.954;7.998;2024-03-17T05:30:19;4.57;;;2.93;;
15110;SDS011;7656;51.954;7.998;2024-03-17T05:34:40;2.73;;;2.50;;
15110;SDS011;7656;51.954;7.998;2024-03-17T05:39:01;8.37;;;3.70;;
15110;SDS011;7656;51.954;7.998;2024-03-17T05:43:23;4.30;;;2.93;;
15110;SDS011;7656;51.954;7.998;2024-03-17T05:47:44;2.73;;;2.27;;
15110;SDS011;7656;51.954;7.998;2024-03-17T05:52:05;7.57;;;3.00;;
15110;SDS011;7656;51.954;7.998;2024-03-17T05:56:28;5.33;;;3.07;;
15110;SDS011;7656;51.954;7.998;2024-03-17T06:00:50;3.40;;;3.00;;
15110;SDS011;7656;51.954;7.998;2024-03-17T06:05:11;5.83;;;3.17;;
15110;SDS011;7656;51.954;7.998;2024-03-17T06:09:33;3.13;;;2.70;;
15110;SDS011;7656;51.954;7.998;2024-03-17T06:13:54;3.67;;;2.83;;
15110;SDS011;7656;51.954;7.998;2024-03-17T06:18:15;7.03;;;3.17;;
15110;SDS011;7656;51.954;7.998;2024-03-17T06:22:38;4.30;;;3.43;;
15110;SDS011;7656;51.954;7.998;2024-03-17T06:26:59;10.13;;;3.87;;
15110;SDS011;7656;51.954;7.998;2024-03-17T06:31:20;7.00;;;4.07;;
15110;SDS011;7656;51.954;7.998;2024-03-17T06:35:41;7.00;;;3.80;;
15110;SDS011;7656;51.954;7.998;2024-03-17T06:40:02;4.87;;;3.80;;
15110;SDS011;7656;51.954;7.998;2024-03-17T06:44:24;5.60;;;4.40;;
15110;SDS011;7656;51.954;7.998;2024-03-17T06:48:49;4.97;;;3.90;;
15110;SDS011;7656;51.954;7.998;2024-03-17T06:53:11;11.07;;;4.83;;
15110;SDS011;7656;51.954;7.998;2024-03-17T06:57:33;6.70;;;4.17;;
15110;SDS011;7656;51.954;7.998;2024-03-17T07:01:55;6.50;;;4.70;;
15110;SDS011;7656;51.954;7.998;2024-03-17T07:06:16;6.67;;;4.67;;
15110;SDS011;7656;51.954;7.998;2024-03-17T07:10:37;9.70;;;4.40;;
15110;SDS011;7656;51.954;7.998;2024-03-17T07:14:58;5.77;;;4.77;;
15110;SDS011;7656;51.954;7.998;2024-03-17T07:19:19;5.77;;;4.57;;
15110;SDS011;7656;51.954;7.998;2024-03-17T07:23:40;8.37;;;4.83;;
15110;SDS011;7656;51.954;7.998;2024-03-17T07:28:01;6.23;;;4.77;;
15110;SDS011;7656;51.954;7.998;2024-03-17T07:32:22;7.80;;;4.83;;
15110;SDS011;7656;51.954;7.998;2024-03-17T07:36:45;8.50;;;4.60;;
15110;SDS011;7656;51.954;7.998;2024-03-17T07:41:07;6.37;;;4.63;;
15110;SDS011;7656;51.954;7.998;2024-03-17T07:45:29;8.70;;;5.20;;
15110;SDS011;7656;51.954;7.998;2024-03-17T07:49:50;5.77;;;4.90;;
15110;SDS011;7656;51.954;7.998;2024-03-17T07:54:11;8.53;;;5.37;;
15110;SDS011;7656;51.954;7.998;2024-03-17T07:58:34;7.13;;;5.13;;
15110;SDS011;7656;51.954;7.998;2024-03-17T08:02:56;7.90;;;5.27;;
15110;SDS011;7656;51.954;7.998;2024-03-17T08:07:17;7.87;;;5.03;;
15110;SDS011;7656;51.954;7.998;2024-03-17T08:11:38;8.37;;;4.83;;
15110;SDS011;7656;51.954;7.998;2024-03-17T08:16:07;9.50;;;4.93;;
15110;SDS011;7656;51.954;7.998;2024-03-17T08:20:30;6.57;;;5.13;;
15110;SDS011;7656;51.954;7.998;2024-03-17T08:24:51;8.53;;;4.60;;
15110;SDS011;7656;51.954;7.998;2024-03-17T08:29:13;8.77;;;5.90;;
15110;SDS011;7656;51.954;7.998;2024-03-17T08:33:34;7.67;;;4.73;;
15110;SDS011;7656;51.954;7.998;2024-03-17T08:37:55;5.20;;;4.70;;
15110;SDS011;7656;51.954;7.998;2024-03-17T08:42:16;8.30;;;5.60;;
15110;SDS011;7656;51.954;7.998;2024-03-17T08:46:38;6.40;;;4.70;;
15110;SDS011;7656;51.954;7.998;2024-03-17T08:51:00;5.77;;;4.90;;
15110;SDS011;7656;51.954;7.998;2024-03-17T08:55:23;6.60;;;5.00;;
15110;SDS011;7656;51.954;7.998;2024-03-17T08:59:47;7.83;;;4.77;;
15110;SDS011;7656;51.954;7.998;2024-03-17T09:04:08;5.70;;;5.00;;
15110;SDS011;7656;51.954;7.998;2024-03-17T09:08:31;8.03;;;5.00;;
15110;SDS011;7656;51.954;7.998;2024-03-17T09:12:54;6.10;;;4.90;;
15110;SDS011;7656;51.954;7.998;2024-03-17T09:17:15;7.10;;;5.10;;
15110;SDS011;7656;51.954;7.998;2024-03-17T09:21:36;6.87;;;4.93;;
15110;SDS011;7656;51.954;7.998;2024-03-17T09:26:03;6.67;;;4.97;;
15110;SDS011;7656;51.954;7.998;2024-03-17T09:30:25;7.83;;;5.07;;
15110;SDS011;7656;51.954;7.998;2024-03-17T09:34:47;6.70;;;4.97;;
15110;SDS011;7656;51.954;7.998;2024-03-17T09:39:09;6.90;;;5.43;;
15110;SDS011;7656;51.954;7.998;2024-03-17T09:43:32;5.87;;;4.90;;
15110;SDS011;7656;51.954;7.998;2024-03-17T09:47:55;8.53;;;5.30;;
15110;SDS011;7656;51.954;7.998;2024-03-17T09:52:19;8.40;;;5.30;;
15110;SDS011;7656;51.954;7.998;2024-03-17T09:56:44;6.63;;;5.50;;
15110;SDS011;7656;51.954;7.998;2024-03-17T10:01:07;6.77;;;5.20;;
15110;SDS011;7656;51.954;7.998;2024-03-17T10:05:28;9.00;;;5.07;;
15110;SDS011;7656;51.954;7.998;2024-03-17T10:09:49;7.27;;;5.40;;
15110;SDS011;7656;51.954;7.998;2024-03-17T10:14:12;8.63;;;5.30;;
15110;SDS011;7656;51.954;7.998;2024-03-17T10:18:37;6.03;;;4.93;;
15110;SDS011;7656;51.954;7.998;2024-03-17T10:22:59;9.77;;;6.27;;
15110;SDS011;7656;51.954;7.998;2024-03-17T10:27:22;7.17;;;5.53;;
15110;SDS011;7656;51.954;7.998;2024-03-17T10:31:43;6.37;;;5.07;;
15110;SDS011;7656;51.954;7.998;2024-03-17T10:36:05;7.77;;;5.70;;
15110;SDS011;7656;51.954;7.998;2024-03-17T10:40:27;6.33;;;4.80;;
15110;SDS011;7656;51.954;7.998;2024-03-17T10:44:50;7.03;;;5.13;;
15110;SDS011;7656;51.954;7.998;2024-03-17T10:49:11;6.13;;;4.80;;
15110;SDS011;7656;51.954;7.998;2024-03-17T10:53:34;8.10;;;5.57;;
15110;SDS011;7656;51.954;7.998;2024-03-17T10:57:56;5.80;;;4.43;;
15110;SDS011;7656;51.954;7.998;2024-03-17T11:02:21;7.97;;;5.23;;
15110;SDS011;7656;51.954;7.998;2024-03-17T11:06:43;7.00;;;5.50;;
15110;SDS011;7656;51.954;7.998;2024-03-17T11:11:06;5.20;;;4.13;;
15110;SDS011;7656;51.954;7.998;2024-03-17T11:20:17;4.90;;;4.10;;
15110;SDS011;7656;51.954;7.998;2024-03-17T11:24:46;5.37;;;4.27;;
15110;SDS011;7656;51.954;7.998;2024-03-17T11:29:23;5.03;;;4.47;;
15110;SDS011;7656;51.954;7.998;2024-03-17T11:33:50;7.77;;;4.30;;
15110;SDS011;7656;51.954;7.998;2024-03-17T11:38:31;7.77;;;4.47;;
15110;SDS011;7656;51.954;7.998;2024-03-17T11:43:14;7.40;;;4.70;;
15110;SDS011;7656;51.954;7.998;2024-03-17T11:47:39;5.57;;;4.97;;
15110;SDS011;7656;51.954;7.998;2024-03-17T11:52:01;8.37;;;4.50;;
15110;SDS011;7656;51.954;7.998;2024-03-17T11:56:24;5.50;;;4.27;;
15110;SDS011;7656;51.954;7.998;2024-03-17T12:00:51;4.93;;;4.27;;
15110;SDS011;7656;51.954;7.998;2024-03-17T12:05:12;5.80;;;4.97;;
15110;SDS011;7656;51.954;7.998;2024-03-17T12:09:34;8.23;;;5.03;;
15110;SDS011;7656;51.954;7.998;2024-03-17T12:13:55;7.07;;;5.23;;
15110;SDS011;7656;51.954;7.998;2024-03-17T12:18:20;6.47;;;5.20;;
15110;SDS011;7656;51.954;7.998;2024-03-17T12:22:41;8.17;;;5.80;;
15110;SDS011;7656;51.954;7.998;2024-03-17T12:27:06;7.37;;;4.90;;
15110;SDS011;7656;51.954;7.998;2024-03-17T12:31:28;6.13;;;4.93;;
15110;SDS011;7656;51.954;7.998;2024-03-17T12:35:50;7.17;;;4.47;;
15110;SDS011;7656;51.954;7.998;2024-03-17T12:40:20;7.07;;;4.27;;
15110;SDS011;7656;51.954;7.998;2024-03-17T12:44:52;4.90;;;4.40;;
15110;SDS011;7656;51.954;7.998;2024-03-17T12:49:15;6.20;;;4.67;;
15110;SDS011;7656;51.954;7.998;2024-03-17T12:53:36;6.83;;;4.80;;
15110;SDS011;7656;51.954;7.998;2024-03-17T13:02:44;5.13;;;3.70;;
15110;SDS011;7656;51.954;7.998;2024-03-17T13:07:10;4.83;;;3.90;;
15110;SDS011;7656;51.954;7.998;2024-03-17T13:11:32;5.20;;;4.20;;
15110;SDS011;7656;51.954;7.998;2024-03-17T13:20:16;7.57;;;4.00;;
15110;SDS011;7656;51.954;7.998;2024-03-17T13:24:38;6.93;;;4.77;;
15110;SDS011;7656;51.954;7.998;2024-03-17T13:28:59;7.60;;;5.00;;
15110;SDS011;7656;51.954;7.998;2024-03-17T13:33:21;6.57;;;4.47;;
15110;SDS011;7656;51.954;7.998;2024-03-17T13:37:48;5.53;;;4.70;;
15110;SDS011;7656;51.954;7.998;2024-03-17T13:42:10;6.50;;;4.90;;
15110;SDS011;7656;51.954;7.998;2024-03-17T13:46:32;5.13;;;4.17;;
15110;SDS011;7656;51.954;7.998;2024-03-17T13:50:54;6.30;;;5.33;;
15110;SDS011;7656;51.954;7.998;2024-03-17T13:55:16;7.03;;;5.10;;
15110;SDS011;7656;51.954;7.998;2024-03-17T13:59:39;6.83;;;5.67;;
15110;SDS011;7656;51.954;7.998;2024-03-17T14:04:00;10.30;;;5.47;;
15110;SDS011;7656;51.954;7.998;2024-03-17T14:08:22;7.10;;;5.40;;
15110;SDS011;7656;51.954;7.998;2024-03-17T14:12:44;7.73;;;5.07;;
15110;SDS011;7656;51.954;7.998;2024-03-17T14:17:06;5.50;;;4.40;;
15110;SDS011;7656;51.954;7.998;2024-03-17T14:21:28;6.13;;;4.77;;
15110;SDS011;7656;51.954;7.998;2024-03-17T14:25:49;5.87;;;4.60;;
15110;SDS011;7656;51.954;7.998;2024-03-17T14:30:14;6.70;;;4.40;;
15110;SDS011;7656;51.954;7.998;2024-03-17T14:34:37;7.90;;;4.77;;
15110;SDS011;7656;51.954;7.998;2024-03-17T14:38:59;5.53;;;4.13;;
15110;SDS011;7656;51.954;7.998;2024-03-17T14:43:20;6.87;;;4.07;;
15110;SDS011;7656;51.954;7.998;2024-03-17T14:47:42;5.47;;;4.43;;
15110;SDS011;7656;51.954;7.998;2024-03-17T14:52:04;5.50;;;4.50;;
15110;SDS011;7656;51.954;7.998;2024-03-17T14:56:26;5.80;;;3.93;;
15110;SDS011;7656;51.954;7.998;2024-03-17T15:00:47;4.83;;;3.50;;
15110;SDS011;7656;51.954;7.998;2024-03-17T15:05:09;7.27;;;4.33;;
15110;SDS011;7656;51.954;7.998;2024-03-17T15:09:30;5.10;;;3.57;;
15110;SDS011;7656;51.954;7.998;2024-03-17T15:13:52;4.90;;;3.93;;
15110;SDS011;7656;51.954;7.998;2024-03-17T15:18:14;4.77;;;3.70;;
15110;SDS011;7656;51.954;7.998;2024-03-17T15:22:36;4.93;;;4.20;;
15110;SDS011;7656;51.954;7.998;2024-03-17T15:26:58;5.73;;;4.27;;
15110;SDS011;7656;51.954;7.998;2024-03-17T15:31:20;4.73;;;3.80;;
15110;SDS011;7656;51.954;7.998;2024-03-17T15:35:42;7.90;;;4.67;;
15110;SDS011;7656;51.954;7.998;2024-03-17T15:40:04;5.93;;;4.30;;
15110;SDS011;7656;51.954;7.998;2024-03-17T15:44:26;5.67;;;4.23;;
15110;SDS011;7656;51.954;7.998;2024-03-17T15:48:48;5.87;;;4.10;;
15110;SDS011;7656;51.954;7.998;2024-03-17T15:53:10;6.87;;;4.23;;
15110;SDS011;7656;51.954;7.998;2024-03-17T15:57:32;5.87;;;4.20;;
15110;SDS011;7656;51.954;7.998;2024-03-17T16:01:54;7.40;;;4.90;;
15110;SDS011;7656;51.954;7.998;2024-03-17T16:06:16;7.97;;;5.10;;
15110;SDS011;7656;51.954;7.998;2024-03-17T16:10:39;14.77;;;5.40;;
15110;SDS011;7656;51.954;7.998;2024-03-17T16:15:02;8.97;;;5.23;;
15110;SDS011;7656;51.954;7.998;2024-03-17T16:19:24;8.27;;;4.97;;
15110;SDS011;7656;51.954;7.998;2024-03-17T16:28:31;6.33;;;4.90;;
15110;SDS011;7656;51.954;7.998;2024-03-17T16:32:53;7.30;;;5.33;;
15110;SDS011;7656;51.954;7.998;2024-03-17T16:37:15;7.40;;;5.03;;
15110;SDS011;7656;51.954;7.998;2024-03-17T16:41:37;7.80;;;4.97;;
15110;SDS011;7656;51.954;7.998;2024-03-17T16:46:09;8.60;;;5.00;;
15110;SDS011;7656;51.954;7.998;2024-03-17T16:51:06;6.67;;;5.13;;
15110;SDS011;7656;51.954;7.998;2024-03-17T16:55:27;9.10;;;6.17;;
15110;SDS011;7656;51.954;7.998;2024-03-17T16:59:49;6.67;;;5.17;;
15110;SDS011;7656;51.954;7.998;2024-03-17T17:04:10;8.63;;;5.70;;
15110;SDS011;7656;51.954;7.998;2024-03-17T17:08:31;9.07;;;5.10;;
15110;SDS011;7656;51.954;7.998;2024-03-17T17:12:52;12.37;;;5.37;;
15110;SDS011;7656;51.954;7.998;2024-03-17T17:17:13;9.00;;;5.53;;
15110;SDS011;7656;51.954;7.998;2024-03-17T17:21:34;8.23;;;5.03;;
15110;SDS011;7656;51.954;7.998;2024-03-17T17:25:56;8.67;;;5.57;;
15110;SDS011;7656;51.954;7.998;2024-03-17T17:30:18;8.10;;;5.80;;
15110;SDS011;7656;51.954;7.998;2024-03-17T17:34:39;11.40;;;5.83;;
15110;SDS011;7656;51.954;7.998;2024-03-17T17:39:00;7.43;;;4.90;;
15110;SDS011;7656;51.954;7.998;2024-03-17T17:43:22;6.67;;;5.03;;
15110;SDS011;7656;51.954;7.998;2024-03-17T17:47:43;8.00;;;5.20;;
15110;SDS011;7656;51.954;7.998;2024-03-17T17:52:04;9.30;;;5.73;;
15110;SDS011;7656;51.954;7.998;2024-03-17T17:56:25;7.17;;;5.13;;
15110;SDS011;7656;51.954;7.998;2024-03-17T18:00:46;8.47;;;6.00;;
15110;SDS011;7656;51.954;7.998;2024-03-17T18:05:09;7.60;;;5.70;;
15110;SDS011;7656;51.954;7.998;2024-03-17T18:09:31;8.13;;;5.77;;
15110;SDS011;7656;51.954;7.998;2024-03-17T18:13:52;9.17;;;5.73;;
15110;SDS011;7656;51.954;7.998;2024-03-17T18:18:13;7.80;;;5.70;;
15110;SDS011;7656;51.954;7.998;2024-03-17T18:22:35;8.13;;;5.53;;
15110;SDS011;7656;51.954;7.998;2024-03-17T18:26:56;7.53;;;5.53;;
15110;SDS011;7656;51.954;7.998;2024-03-17T18:31:17;8.67;;;5.87;;
15110;SDS011;7656;51.954;7.998;2024-03-17T18:35:51;9.53;;;6.13;;
15110;SDS011;7656;51.954;7.998;2024-03-17T18:40:14;7.73;;;5.47;;
15110;SDS011;7656;51.954;7.998;2024-03-17T18:44:38;8.00;;;5.40;;
15110;SDS011;7656;51.954;7.998;2024-03-17T18:49:00;6.83;;;5.20;;
15110;SDS011;7656;51.954;7.998;2024-03-17T18:53:26;9.47;;;4.93;;
15110;SDS011;7656;51.954;7.998;2024-03-17T18:57:47;8.43;;;5.60;;
15110;SDS011;7656;51.954;7.998;2024-03-17T19:02:08;6.93;;;5.30;;
15110;SDS011;7656;51.954;7.998;2024-03-17T19:06:32;8.30;;;5.40;;
15110;SDS011;7656;51.954;7.998;2024-03-17T19:10:53;10.20;;;5.40;;
15110;SDS011;7656;51.954;7.998;2024-03-17T19:15:16;6.83;;;4.80;;
15110;SDS011;7656;51.954;7.998;2024-03-17T19:19:37;7.03;;;5.30;;
15110;SDS011;7656;51.954;7.998;2024-03-17T19:23:58;8.00;;;5.43;;
15110;SDS011;7656;51.954;7.998;2024-03-17T19:28:19;9.43;;;5.33;;
15110;SDS011;7656;51.954;7.998;2024-03-17T19:32:40;7.53;;;4.93;;
15110;SDS011;7656;51.954;7.998;2024-03-17T19:37:01;10.33;;;5.23;;
15110;SDS011;7656;51.954;7.998;2024-03-17T19:41:23;10.60;;;5.63;;
15110;SDS011;7656;51.954;7.998;2024-03-17T19:45:44;10.17;;;5.80;;
15110;SDS011;7656;51.954;7.998;2024-03-17T19:50:05;7.10;;;5.67;;
15110;SDS011;7656;51.954;7.998;2024-03-17T19:54:26;7.57;;;5.87;;
15110;SDS011;7656;51.954;7.998;2024-03-17T19:58:49;6.57;;;5.03;;
15110;SDS011;7656;51.954;7.998;2024-03-17T20:03:13;8.00;;;5.53;;
15110;SDS011;7656;51.954;7.998;2024-03-17T20:07:35;9.40;;;5.73;;
15110;SDS011;7656;51.954;7.998;2024-03-17T20:11:57;6.73;;;5.33;;
15110;SDS011;7656;51.954;7.998;2024-03-17T20:16:21;7.43;;;5.37;;
15110;SDS011;7656;51.954;7.998;2024-03-17T20:20:47;7.03;;;5.83;;
15110;SDS011;7656;51.954;7.998;2024-03-17T20:25:12;7.20;;;5.83;;
15110;SDS011;7656;51.954;7.998;2024-03-17T20:29:33;10.23;;;5.73;;
15110;SDS011;7656;51.954;7.998;2024-03-17T20:33:55;7.13;;;5.13;;
15110;SDS011;7656;51.954;7.998;2024-03-17T20:38:16;8.17;;;5.63;;
15110;SDS011;7656;51.954;7.998;2024-03-17T20:42:37;7.37;;;5.03;;
15110;SDS011;7656;51.954;7.998;2024-03-17T20:46:58;9.53;;;5.53;;
15110;SDS011;7656;51.954;7.998;2024-03-17T20:51:20;7.47;;;5.43;;
15110;SDS011;7656;51.954;7.998;2024-03-17T20:55:41;6.60;;;5.10;;
15110;SDS011;7656;51.954;7.998;2024-03-17T21:00:03;6.50;;;5.80;;
15110;SDS011;7656;51.954;7.998;2024-03-17T21:04:37;9.17;;;5.50;;
15110;SDS011;7656;51.954;7.998;2024-03-17T21:08:58;9.63;;;5.63;;
15110;SDS011;7656;51.954;7.998;2024-03-17T21:13:19;7.87;;;5.97;;
15110;SDS011;7656;51.954;7.998;2024-03-17T21:17:40;8.03;;;5.17;;
15110;SDS011;7656;51.954;7.998;2024-03-17T21:22:02;9.07;;;5.50;;
15110;SDS011;7656;51.954;7.998;2024-03-17T21:26:24;6.50;;;4.67;;
15110;SDS011;7656;51.954;7.998;2024-03-17T21:30:45;10.17;;;5.47;;
15110;SDS011;7656;51.954;7.998;2024-03-17T21:35:08;6.67;;;4.87;;
15110;SDS011;7656;51.954;7.998;2024-03-17T21:39:30;7.47;;;4.87;;
15110;SDS011;7656;51.954;7.998;2024-03-17T21:43:51;6.90;;;5.33;;
15110;SDS011;7656;51.954;7.998;2024-03-17T21:48:13;6.80;;;5.30;;
15110;SDS011;7656;51.954;7.998;2024-03-17T21:52:35;7.57;;;6.07;;
15110;SDS011;7656;51.954;7.998;2024-03-17T21:57:00;8.83;;;5.43;;
15110;SDS011;7656;51.954;7.998;2024-03-17T22:01:21;8.00;;;5.93;;
15110;SDS011;7656;51.954;7.998;2024-03-17T22:05:52;8.53;;;4.80;;
15110;SDS011;7656;51.954;7.998;2024-03-17T22:10:13;8.00;;;5.30;;
15110;SDS011;7656;51.954;7.998;2024-03-17T22:14:34;8.03;;;5.53;;
15110;SDS011;7656;51.954;7.998;2024-03-17T22:18:57;7.07;;;5.33;;
15110;SDS011;7656;51.954;7.998;2024-03-17T22:23:18;8.33;;;5.87;;
15110;SDS011;7656;51.954;7.998;2024-03-17T22:27:40;8.20;;;5.97;;
15110;SDS011;7656;51.954;7.998;2024-03-17T22:32:01;11.57;;;6.13;;
15110;SDS011;7656;51.954;7.998;2024-03-17T22:36:25;6.43;;;5.30;;
15110;SDS011;7656;51.954;7.998;2024-03-17T22:40:53;9.27;;;5.67;;
15110;SDS011;7656;51.954;7.998;2024-03-17T22:45:24;6.87;;;5.23;;
15110;SDS011;7656;51.954;7.998;2024-03-17T22:49:45;7.77;;;5.37;;
15110;SDS011;7656;51.954;7.998;2024-03-17T22:54:06;8.30;;;5.47;;
15110;SDS011;7656;51.954;7.998;2024-03-17T22:58:28;8.63;;;5.33;;
15110;SDS011;7656;51.954;7.998;2024-03-17T23:02:50;10.90;;;6.13;;
15110;SDS011;7656;51.954;7.998;2024-03-17T23:07:11;6.77;;;4.80;;
15110;SDS011;7656;51.954;7.998;2024-03-17T23:11:32;6.57;;;5.20;;
15110;SDS011;7656;51.954;7.998;2024-03-17T23:15:53;9.20;;;5.30;;
15110;SDS011;7656;51.954;7.998;2024-03-17T23:20:18;9.40;;;4.87;;
15110;SDS011;7656;51.954;7.998;2024-03-17T23:24:39;9.23;;;5.60;;
15110;SDS011;7656;51.954;7.998;2024-03-17T23:29:00;7.47;;;5.20;;
15110;SDS011;7656;51.954;7.998;2024-03-17T23:33:21;7.37;;;4.80;;
15110;SDS011;7656;51.954;7.998;2024-03-17T23:37:42;6.60;;;4.90;;
15110;SDS011;7656;51.954;7.998;2024-03-17T23:42:03;7.90;;;5.70;;
15110;SDS011;7656;51.954;7.998;2024-03-17T23:46:25;10.43;;;5.43;;
15110;SDS011;7656;51.954;7.998;2024-03-17T23:50:46;8.80;;;5.60;;
15110;SDS011;7656;51.954;7.998;2024-03-17T23:55:07;8.27;;;5.50;;
15110;SDS011;7656;51.954;7.998;2024-03-17T23:59:28;11.50;;;5.83;;
